Time;durP1;ratioP1;P1;durP2;ratioP2;P2;SDS_P1;SDS_P2;PMS_P1;PMS_P2;Temp;Humidity;BMP_temperature;BMP_pressure;BME280_temperature;BME280_humidity;BME280_pressure;Samples;Min_cycle;Max_cycle;Signal;HPM_P1;HPM_P2
2021/06/22 00:00:21;;;;;;;15.97;14.47;;;15.30;99.90;;;;;;5113400;28;20227;-62
2021/06/22 00:02:47;;;;;;;11.37;10.23;;;15.20;99.90;;;;;;5113188;28;20448;-62
2021/06/22 00:05:13;;;;;;;13.37;12.10;;;15.20;99.90;;;;;;5113428;28;20418;-62
2021/06/22 00:07:39;;;;;;;11.50;10.40;;;15.20;99.90;;;;;;5112995;28;20443;-62
2021/06/22 00:10:06;;;;;;;9.13;8.30;;;15.20;99.90;;;;;;5112276;28;20509;-62
2021/06/22 00:12:32;;;;;;;9.60;8.80;;;15.10;99.90;;;;;;5113276;28;20197;-62
2021/06/22 00:14:58;;;;;;;9.77;8.90;;;15.20;99.90;;;;;;5113247;28;20399;-62
2021/06/22 00:17:23;;;;;;;9.57;8.77;;;15.10;99.90;;;;;;5112824;28;20424;-62
2021/06/22 00:19:49;;;;;;;11.60;10.50;;;15.10;99.90;;;;;;5113141;28;20483;-62
2021/06/22 00:22:14;;;;;;;10.30;9.40;;;15.10;99.90;;;;;;5112938;28;20174;-62
2021/06/22 00:24:40;;;;;;;9.97;9.07;;;15.10;99.90;;;;;;5112743;28;20166;-62
2021/06/22 00:27:06;;;;;;;9.40;8.60;;;15.00;99.90;;;;;;5112669;28;20174;-62
2021/06/22 00:29:32;;;;;;;8.20;7.17;;;15.00;99.90;;;;;;5112879;28;20193;-62
2021/06/22 00:31:57;;;;;;;8.63;7.83;;;15.10;99.90;;;;;;5112986;28;20457;-62
2021/06/22 00:34:23;;;;;;;7.73;7.03;;;15.10;99.90;;;;;;5112914;28;20536;-62
2021/06/22 00:36:48;;;;;;;7.90;7.20;;;15.00;99.90;;;;;;5112509;28;20166;-62
2021/06/22 00:39:14;;;;;;;7.33;6.63;;;15.00;99.90;;;;;;5112664;28;20221;-62
2021/06/22 00:41:40;;;;;;;7.33;6.63;;;15.10;99.90;;;;;;5112810;28;20173;-62
2021/06/22 00:44:10;;;;;;;6.43;5.93;;;15.00;99.90;;;;;;5112334;28;20166;-62
2021/06/22 00:46:36;;;;;;;6.33;5.70;;;15.00;99.90;;;;;;5112518;28;20219;-62
2021/06/22 00:49:03;;;;;;;7.00;6.50;;;15.00;99.90;;;;;;5112657;28;20538;-62
2021/06/22 00:51:29;;;;;;;7.00;6.40;;;15.10;99.90;;;;;;5113046;28;20404;-62
2021/06/22 00:53:56;;;;;;;7.17;6.57;;;15.10;99.90;;;;;;5112499;28;20403;-62
2021/06/22 00:56:24;;;;;;;7.73;7.03;;;15.10;99.90;;;;;;5112714;28;20392;-62
2021/06/22 00:58:51;;;;;;;5.97;5.47;;;15.00;99.90;;;;;;5112285;28;20430;-62
2021/06/22 01:01:17;;;;;;;6.73;6.13;;;14.90;99.90;;;;;;5112597;28;20434;-62
2021/06/22 01:03:42;;;;;;;7.63;5.97;;;15.00;99.90;;;;;;5112433;28;20422;-62
2021/06/22 01:06:10;;;;;;;5.27;4.87;;;15.00;99.90;;;;;;5112399;28;20396;-62
2021/06/22 01:08:36;;;;;;;6.20;5.70;;;14.80;99.90;;;;;;5112320;28;20539;-62
2021/06/22 01:11:02;;;;;;;6.47;5.97;;;14.90;99.90;;;;;;5112389;28;20407;-62
2021/06/22 01:13:28;;;;;;;7.13;6.53;;;14.90;99.90;;;;;;5112414;28;20574;-62
2021/06/22 01:15:53;;;;;;;5.40;5.00;;;14.80;99.90;;;;;;5112368;28;20489;-62
2021/06/22 01:18:19;;;;;;;6.03;5.53;;;14.80;99.90;;;;;;5111975;28;20190;-62
2021/06/22 01:20:44;;;;;;;7.37;6.67;;;14.80;99.90;;;;;;5112231;28;20192;-62
2021/06/22 01:23:10;;;;;;;6.20;5.70;;;14.80;99.90;;;;;;5112053;28;20226;-62
2021/06/22 01:25:37;;;;;;;6.30;5.70;;;14.80;99.90;;;;;;5112286;28;20166;-62
2021/06/22 01:28:03;;;;;;;5.77;5.23;;;14.80;99.90;;;;;;5111806;28;20189;-62
2021/06/22 01:30:31;;;;;;;4.70;4.27;;;14.70;99.90;;;;;;5112189;28;20414;-62
2021/06/22 01:32:58;;;;;;;5.33;4.83;;;14.70;99.90;;;;;;5112196;28;20839;-62
2021/06/22 01:35:25;;;;;;;5.57;5.07;;;14.60;99.90;;;;;;5112098;28;20403;-62
2021/06/22 01:37:57;;;;;;;5.93;5.43;;;14.60;99.90;;;;;;5111758;28;20434;-62
2021/06/22 01:40:24;;;;;;;5.97;5.47;;;14.60;99.90;;;;;;5112168;28;20402;-62
2021/06/22 01:42:50;;;;;;;7.70;7.00;;;14.50;99.90;;;;;;5111982;28;20407;-62
2021/06/22 01:45:16;;;;;;;6.53;4.73;;;14.50;99.90;;;;;;5112126;28;20464;-62
2021/06/22 01:47:43;;;;;;;6.17;4.83;;;14.50;99.90;;;;;;5111601;28;20447;-62
2021/06/22 01:50:09;;;;;;;5.17;4.67;;;14.50;99.90;;;;;;5111967;28;20482;-62
2021/06/22 01:52:35;;;;;;;6.50;5.90;;;14.50;99.90;;;;;;5111871;28;20475;-62
2021/06/22 01:55:34;;;;;;;8.70;7.90;;;14.40;99.90;;;;;;5112018;28;20848;-62
2021/06/22 01:57:48;;;;;;;8.30;5.93;;;14.40;99.90;;;;;;5111471;28;20427;-62
2021/06/22 02:00:15;;;;;;;6.40;5.80;;;14.40;99.90;;;;;;5112031;28;20433;-62
2021/06/22 02:02:40;;;;;;;6.40;5.07;;;14.40;99.90;;;;;;5111755;28;20506;-62
2021/06/22 02:05:06;;;;;;;6.57;5.33;;;14.30;99.90;;;;;;5111928;28;20955;-62
2021/06/22 02:07:32;;;;;;;7.40;6.70;;;14.30;99.90;;;;;;5111367;28;20197;-62
2021/06/22 02:09:57;;;;;;;5.57;5.17;;;14.30;99.90;;;;;;5111825;28;20249;-62
2021/06/22 02:12:23;;;;;;;7.63;6.93;;;14.30;99.90;;;;;;5111834;28;20233;-62
2021/06/22 02:14:48;;;;;;;7.97;6.20;;;14.30;99.90;;;;;;5111787;28;20594;-62
2021/06/22 02:17:14;;;;;;;9.33;6.60;;;14.30;99.90;;;;;;5111321;28;20170;-62
2021/06/22 02:19:40;;;;;;;7.53;6.83;;;14.30;99.90;;;;;;5111804;28;20300;-62
2021/06/22 02:22:05;;;;;;;7.10;6.40;;;14.20;99.90;;;;;;5111764;28;20520;-62
2021/06/22 02:24:31;;;;;;;6.57;5.50;;;14.20;99.90;;;;;;5111697;28;20178;-62
2021/06/22 02:26:56;;;;;;;7.93;6.90;;;14.30;99.90;;;;;;5111454;28;20285;-62
2021/06/22 02:29:22;;;;;;;8.27;7.30;;;14.30;99.90;;;;;;5111571;28;20173;-62
2021/06/22 02:31:47;;;;;;;8.23;7.50;;;14.30;99.90;;;;;;5111632;28;20634;-62
2021/06/22 02:34:13;;;;;;;10.53;9.37;;;14.20;99.90;;;;;;5113296;28;20174;-62
2021/06/22 02:36:39;;;;;;;7.70;7.00;;;14.00;99.90;;;;;;5115152;28;20174;-62
2021/06/22 02:39:05;;;;;;;6.67;6.00;;;14.00;99.90;;;;;;5115085;28;20728;-62
2021/06/22 02:41:30;;;;;;;9.20;7.20;;;14.00;99.90;;;;;;5115132;27;20249;-62
2021/06/22 02:43:56;;;;;;;7.73;6.93;;;14.10;99.90;;;;;;5115034;28;20457;-62
2021/06/22 02:46:22;;;;;;;6.90;6.27;;;14.10;99.90;;;;;;5114921;28;20614;-62
2021/06/22 02:48:47;;;;;;;8.20;7.10;;;14.10;99.90;;;;;;5114652;28;20480;-62
2021/06/22 02:51:13;;;;;;;13.40;5.83;;;14.10;99.90;;;;;;5114986;28;20245;-62
2021/06/22 02:53:39;;;;;;;7.93;7.23;;;14.10;99.90;;;;;;5114875;28;20692;-62
2021/06/22 02:56:04;;;;;;;7.93;7.13;;;14.10;99.90;;;;;;5114866;27;20166;-62
2021/06/22 02:58:30;;;;;;;9.83;6.47;;;14.10;99.90;;;;;;5114383;28;20197;-62
2021/06/22 03:00:55;;;;;;;7.17;6.43;;;14.10;99.90;;;;;;5114560;28;20634;-62
2021/06/22 03:03:21;;;;;;;7.17;6.57;;;13.90;99.90;;;;;;5114687;28;20200;-62
2021/06/22 03:05:47;;;;;;;6.47;5.87;;;13.90;99.90;;;;;;5114685;28;20174;-62
2021/06/22 03:08:12;;;;;;;7.27;6.60;;;13.90;99.90;;;;;;5114420;28;20447;-62
2021/06/22 03:10:38;;;;;;;7.60;6.90;;;13.90;99.90;;;;;;5114587;28;20166;-62
2021/06/22 03:13:03;;;;;;;7.93;7.23;;;13.90;99.90;;;;;;5114505;28;20193;-62
2021/06/22 03:15:30;;;;;;;7.03;6.33;;;13.90;99.90;;;;;;5114430;28;20754;-62
2021/06/22 03:17:56;;;;;;;7.63;6.60;;;13.80;99.90;;;;;;5114048;28;20205;-62
2021/06/22 03:20:22;;;;;;;7.30;6.60;;;13.80;99.90;;;;;;5114408;28;20910;-62
2021/06/22 03:22:47;;;;;;;7.43;6.07;;;13.80;99.90;;;;;;5114302;28;20177;-62
2021/06/22 03:25:14;;;;;;;7.10;6.40;;;13.80;99.90;;;;;;5114341;28;20298;-62
2021/06/22 03:27:40;;;;;;;7.37;6.60;;;13.80;99.90;;;;;;5113809;28;20429;-62
2021/06/22 03:30:08;;;;;;;7.00;6.50;;;13.80;99.90;;;;;;5114126;28;20494;-62
2021/06/22 03:32:34;;;;;;;6.93;6.33;;;13.90;99.90;;;;;;5114014;28;20507;-62
2021/06/22 03:35:02;;;;;;;8.03;6.70;;;13.90;99.90;;;;;;5114119;28;20483;-62
2021/06/22 03:37:28;;;;;;;7.37;6.60;;;13.90;99.90;;;;;;5113725;28;20748;-62
2021/06/22 03:39:53;;;;;;;7.00;6.30;;;13.90;99.90;;;;;;5114004;28;20906;-62
2021/06/22 03:42:19;;;;;;;11.67;8.23;;;13.90;99.90;;;;;;5113948;28;20181;-62
2021/06/22 03:44:44;;;;;;;11.57;7.93;;;13.90;99.90;;;;;;5113424;28;20170;-62
2021/06/22 03:47:11;;;;;;;9.60;8.20;;;13.90;99.90;;;;;;5113512;28;20166;-62
2021/06/22 03:49:36;;;;;;;11.90;8.00;;;13.80;99.90;;;;;;5113867;28;20174;-62
2021/06/22 03:52:02;;;;;;;10.03;8.07;;;13.80;99.90;;;;;;5113802;28;20418;-62
2021/06/22 03:54:28;;;;;;;11.57;8.07;;;13.80;99.90;;;;;;5113631;28;20174;-62
2021/06/22 03:56:53;;;;;;;10.60;9.50;;;13.80;99.90;;;;;;5113363;27;20626;-62
2021/06/22 03:59:19;;;;;;;9.43;8.50;;;13.80;99.90;;;;;;5113492;28;20674;-62
2021/06/22 04:01:45;;;;;;;10.83;9.50;;;13.70;99.90;;;;;;5113480;28;20181;-61
2021/06/22 04:04:10;;;;;;;10.90;9.73;;;13.70;99.90;;;;;;5113379;28;20170;-62
2021/06/22 04:06:36;;;;;;;11.47;9.10;;;13.60;99.90;;;;;;5113189;28;20181;-61
2021/06/22 04:09:02;;;;;;;13.23;11.20;;;13.50;99.90;;;;;;5113322;27;20195;-62
2021/06/22 04:11:28;;;;;;;11.23;9.90;;;13.60;99.90;;;;;;5113391;28;20180;-62
2021/06/22 04:13:54;;;;;;;12.80;11.50;;;13.60;99.90;;;;;;5113222;28;20418;-62
2021/06/22 04:16:19;;;;;;;14.00;12.50;;;13.40;99.90;;;;;;5113247;28;20863;-62
2021/06/22 04:18:45;;;;;;;13.07;11.07;;;13.30;99.90;;;;;;5112840;28;20205;-62
2021/06/22 04:21:11;;;;;;;12.70;11.43;;;13.30;99.90;;;;;;5113212;28;20576;-62
2021/06/22 04:23:36;;;;;;;14.17;11.67;;;13.30;99.90;;;;;;5113020;28;20197;-62
2021/06/22 04:26:02;;;;;;;10.83;9.73;;;13.40;99.90;;;;;;5113144;28;20174;-62
2021/06/22 04:28:28;;;;;;;13.23;11.20;;;13.40;99.90;;;;;;5112703;28;20657;-62
2021/06/22 04:30:53;;;;;;;14.23;11.20;;;13.40;99.90;;;;;;5113072;28;20495;-62
2021/06/22 04:33:19;;;;;;;12.87;11.37;;;13.30;99.90;;;;;;5112985;28;20182;-62
2021/06/22 04:35:44;;;;;;;13.23;10.93;;;13.30;99.90;;;;;;5112982;28;20170;-62
2021/06/22 04:38:10;;;;;;;13.17;11.10;;;13.30;99.90;;;;;;5112487;28;20201;-62
2021/06/22 04:40:38;;;;;;;12.53;11.33;;;13.20;99.90;;;;;;5112855;28;20172;-61
2021/06/22 04:43:04;;;;;;;12.43;10.77;;;13.20;99.90;;;;;;5113802;28;20166;-61
2021/06/22 04:45:31;;;;;;;12.57;10.93;;;13.20;99.90;;;;;;5112818;28;20880;-62
2021/06/22 04:47:57;;;;;;;12.20;11.00;;;13.30;99.90;;;;;;5112376;28;20416;-62
2021/06/22 04:50:23;;;;;;;15.40;12.93;;;13.20;99.90;;;;;;5112724;28;20892;-62
2021/06/22 04:52:49;;;;;;;15.20;12.63;;;13.30;99.90;;;;;;5111317;28;20460;-62
2021/06/22 04:55:16;;;;;;;13.37;11.43;;;13.30;99.90;;;;;;5112597;28;20411;-62
2021/06/22 04:57:46;;;;;;;15.53;12.10;;;13.30;99.90;;;;;;5111690;28;20289;-62
2021/06/22 05:00:13;;;;;;;14.37;12.10;;;13.30;99.90;;;;;;5112536;28;20499;-61
2021/06/22 05:02:40;;;;;;;14.33;11.73;;;13.30;99.90;;;;;;5112398;28;20805;-61
2021/06/22 05:05:06;;;;;;;14.70;11.97;;;13.30;99.90;;;;;;5112498;28;20464;-61
2021/06/22 05:07:32;;;;;;;15.07;12.63;;;13.10;99.90;;;;;;5112035;28;20432;-62
2021/06/22 05:09:59;;;;;;;16.17;11.87;;;13.10;99.90;;;;;;5112317;28;20408;-60
2021/06/22 05:12:25;;;;;;;13.37;11.97;;;13.10;99.90;;;;;;5112446;28;20400;-61
2021/06/22 05:14:50;;;;;;;13.20;11.80;;;13.00;99.90;;;;;;5112299;28;20426;-62
2021/06/22 05:17:16;;;;;;;13.60;11.70;;;13.10;99.90;;;;;;5111982;28;20888;-61
2021/06/22 05:19:42;;;;;;;14.20;12.70;;;13.00;99.90;;;;;;5112402;28;20201;-62
2021/06/22 05:22:07;;;;;;;11.60;10.50;;;13.00;99.90;;;;;;5112270;28;20162;-62
2021/06/22 05:24:33;;;;;;;10.57;9.47;;;13.00;99.90;;;;;;5112116;28;20170;-62
2021/06/22 05:26:59;;;;;;;13.07;10.33;;;12.90;99.90;;;;;;5111898;28;20510;-62
2021/06/22 05:29:25;;;;;;;9.77;8.87;;;12.90;99.90;;;;;;5112178;28;20407;-61
2021/06/22 05:31:50;;;;;;;9.37;8.47;;;12.90;99.90;;;;;;5112244;28;20710;-62
2021/06/22 05:34:16;;;;;;;8.50;7.67;;;12.90;99.90;;;;;;5112202;28;20170;-62
2021/06/22 05:36:42;;;;;;;10.07;9.07;;;12.80;99.90;;;;;;5111877;28;20652;-62
2021/06/22 05:39:07;;;;;;;9.40;8.60;;;12.90;99.90;;;;;;5111870;28;20559;-61
2021/06/22 05:41:33;;;;;;;9.27;8.37;;;13.00;99.90;;;;;;5112133;28;20187;-61
2021/06/22 05:43:59;;;;;;;11.87;10.40;;;13.00;99.90;;;;;;5112202;28;20162;-62
2021/06/22 05:46:24;;;;;;;10.30;9.30;;;12.90;99.90;;;;;;5111942;28;20197;-62
2021/06/22 05:48:50;;;;;;;10.47;9.37;;;12.90;99.90;;;;;;5111825;28;20583;-61
2021/06/22 05:51:16;;;;;;;9.70;8.87;;;13.00;99.90;;;;;;5112033;28;20170;-61
2021/06/22 05:53:42;;;;;;;17.07;12.73;;;13.00;99.90;;;;;;5111851;28;20248;-62
2021/06/22 05:56:08;;;;;;;13.73;11.60;;;13.00;99.90;;;;;;5111971;28;20494;-62
2021/06/22 05:58:33;;;;;;;11.57;10.40;;;12.90;99.90;;;;;;5111505;28;20455;-61
2021/06/22 06:00:59;;;;;;;11.00;9.90;;;12.90;99.90;;;;;;5111805;28;20181;-62
2021/06/22 06:03:24;;;;;;;12.73;11.47;;;12.90;99.90;;;;;;5111923;28;20170;-62
2021/06/22 06:05:50;;;;;;;16.70;11.33;;;12.90;99.90;;;;;;5111882;28;20561;-62
2021/06/22 06:08:15;;;;;;;12.80;10.87;;;13.00;99.90;;;;;;5113240;28;20560;-62
2021/06/22 06:10:41;;;;;;;9.97;8.97;;;13.00;99.90;;;;;;5115801;28;20178;-62
2021/06/22 06:13:06;;;;;;;13.33;12.03;;;13.00;99.90;;;;;;5115686;28;20196;-62
2021/06/22 06:15:32;;;;;;;16.20;12.40;;;13.10;99.90;;;;;;5115683;28;20509;-62
2021/06/22 06:17:58;;;;;;;12.57;9.90;;;13.00;99.90;;;;;;5115211;28;20201;-61
2021/06/22 06:20:25;;;;;;;14.10;12.90;;;13.10;99.90;;;;;;5115544;28;20219;-62
2021/06/22 06:22:50;;;;;;;13.03;11.77;;;13.10;99.90;;;;;;5115408;28;20166;-62
2021/06/22 06:25:16;;;;;;;13.77;12.10;;;13.10;99.90;;;;;;5115500;28;20762;-62
2021/06/22 06:27:49;;;;;;;14.73;11.43;;;13.10;99.90;;;;;;5115129;28;20214;-61
2021/06/22 06:30:22;;;;;;;10.90;9.90;;;13.20;99.90;;;;;;5115444;28;20634;-62
2021/06/22 06:32:49;;;;;;;10.13;9.17;;;13.20;99.90;;;;;;5114331;28;20408;-63
2021/06/22 06:35:17;;;;;;;11.80;10.57;;;13.40;99.90;;;;;;5114050;28;20453;-64
2021/06/22 06:37:43;;;;;;;8.60;7.70;;;13.60;99.90;;;;;;5114753;27;20488;-64
2021/06/22 06:40:09;;;;;;;10.13;9.23;;;14.20;99.90;;;;;;5115147;28;20414;-63
2021/06/22 06:42:35;;;;;;;11.83;10.43;;;14.70;99.90;;;;;;5115090;28;20777;-63
2021/06/22 06:45:01;;;;;;;15.03;11.17;;;14.80;99.90;;;;;;5115134;28;20406;-64
2021/06/22 06:47:27;;;;;;;11.00;8.57;;;14.60;99.90;;;;;;5114680;28;20514;-63
2021/06/22 06:49:53;;;;;;;9.17;8.43;;;14.70;99.90;;;;;;5114795;28;20490;-63
2021/06/22 06:52:19;;;;;;;9.07;8.17;;;14.60;99.90;;;;;;5114974;28;20169;-63
2021/06/22 06:54:45;;;;;;;13.03;9.97;;;14.80;99.90;;;;;;5114854;28;20170;-63
2021/06/22 06:57:10;;;;;;;8.77;7.97;;;15.00;99.90;;;;;;5114539;28;20465;-62
2021/06/22 06:59:36;;;;;;;8.33;7.47;;;15.30;99.90;;;;;;5114728;28;20236;-63
2021/06/22 07:02:02;;;;;;;10.27;8.80;;;15.50;99.90;;;;;;5114646;28;20186;-63
2021/06/22 07:04:28;;;;;;;9.70;7.83;;;15.40;99.90;;;;;;5114503;28;20170;-63
2021/06/22 07:06:53;;;;;;;9.60;8.10;;;15.10;99.90;;;;;;5114411;28;20740;-63
2021/06/22 07:09:19;;;;;;;8.20;7.50;;;15.10;99.90;;;;;;5114510;28;20672;-63
2021/06/22 07:11:45;;;;;;;10.27;9.07;;;15.20;99.90;;;;;;5114571;28;20173;-63
2021/06/22 07:14:14;;;;;;;7.50;6.80;;;15.00;99.90;;;;;;5114575;28;20366;-62
2021/06/22 07:16:40;;;;;;;12.57;9.87;;;15.00;99.90;;;;;;5114201;28;20170;-64
2021/06/22 07:19:06;;;;;;;10.97;8.23;;;14.80;99.90;;;;;;5113546;28;20478;-64
2021/06/22 07:21:31;;;;;;;13.73;10.63;;;15.00;99.90;;;;;;5114363;28;20890;-63
2021/06/22 07:23:57;;;;;;;12.77;10.57;;;14.90;99.90;;;;;;5114273;28;20690;-63
2021/06/22 07:26:23;;;;;;;14.20;10.93;;;14.90;99.90;;;;;;5114184;28;20166;-62
2021/06/22 07:28:48;;;;;;;13.07;10.87;;;15.10;99.90;;;;;;5113900;27;20284;-63
2021/06/22 07:31:14;;;;;;;11.37;10.27;;;15.20;99.90;;;;;;5114198;28;20174;-63
2021/06/22 07:33:40;;;;;;;10.47;9.37;;;15.20;99.90;;;;;;5113921;28;20173;-63
2021/06/22 07:36:08;;;;;;;15.53;11.43;;;15.20;99.90;;;;;;5114170;28;20246;-63
2021/06/22 07:38:35;;;;;;;12.13;10.93;;;15.10;99.90;;;;;;5113768;28;21051;-62
2021/06/22 07:41:02;;;;;;;14.70;11.10;;;15.00;99.90;;;;;;5114005;28;20475;-63
2021/06/22 07:43:27;;;;;;;9.57;8.67;;;14.80;99.90;;;;;;5113899;28;20408;-63
2021/06/22 07:45:53;;;;;;;9.60;8.30;;;15.10;99.90;;;;;;5113929;28;20761;-63
2021/06/22 07:48:19;;;;;;;10.60;9.57;;;15.00;99.90;;;;;;5113224;28;20200;-63
2021/06/22 07:50:44;;;;;;;9.03;7.37;;;15.00;99.90;;;;;;5113785;28;20173;-61
2021/06/22 07:53:10;;;;;;;11.90;8.87;;;14.80;99.90;;;;;;5113692;28;20178;-61
2021/06/22 07:55:36;;;;;;;9.60;8.17;;;15.10;99.90;;;;;;5113790;28;20641;-62
2021/06/22 07:58:02;;;;;;;9.83;8.50;;;15.30;99.90;;;;;;5113194;28;20297;-63
2021/06/22 08:00:42;;;;;;;11.87;8.00;;;15.10;99.90;;;;;;5113492;28;20896;-64
2021/06/22 08:03:12;;;;;;;11.03;8.50;;;15.20;99.90;;;;;;5113494;27;20783;-64
2021/06/22 08:05:39;;;;;;;11.97;9.27;;;15.50;99.90;;;;;;5113721;28;20403;-63
2021/06/22 08:08:05;;;;;;;8.00;7.33;;;15.60;99.90;;;;;;5113049;28;20443;-63
2021/06/22 08:10:32;;;;;;;8.73;7.83;;;15.70;99.90;;;;;;5113430;28;20883;-63
2021/06/22 08:12:57;;;;;;;9.20;7.97;;;15.70;99.90;;;;;;5112058;28;20499;-63
2021/06/22 08:15:24;;;;;;;7.10;6.40;;;15.90;99.90;;;;;;5113186;28;20820;-64
2021/06/22 08:17:50;;;;;;;7.97;7.27;;;16.10;99.90;;;;;;5112996;28;20454;-63
2021/06/22 08:20:15;;;;;;;9.33;8.53;;;16.10;99.90;;;;;;5113235;28;20400;-63
2021/06/22 08:22:41;;;;;;;9.17;8.00;;;15.90;99.90;;;;;;5113138;28;20169;-63
2021/06/22 08:25:08;;;;;;;8.43;7.60;;;15.70;99.90;;;;;;5113174;28;20252;-63
2021/06/22 08:27:33;;;;;;;10.17;7.13;;;15.60;99.90;;;;;;5112688;28;20185;-64
2021/06/22 08:29:59;;;;;;;8.77;7.77;;;15.80;99.90;;;;;;5112942;28;20975;-63
2021/06/22 08:32:25;;;;;;;7.80;7.10;;;15.80;99.90;;;;;;5110869;28;20169;-63
2021/06/22 08:34:50;;;;;;;10.30;9.03;;;15.80;99.90;;;;;;5112878;28;20162;-63
2021/06/22 08:37:16;;;;;;;10.03;7.47;;;15.90;99.90;;;;;;5112618;28;20170;-63
2021/06/22 08:39:42;;;;;;;6.90;6.20;;;15.90;99.90;;;;;;5112792;28;20219;-62
2021/06/22 08:42:10;;;;;;;7.60;6.50;;;16.20;99.90;;;;;;5112891;28;20172;-63
2021/06/22 08:44:37;;;;;;;9.60;6.47;;;16.10;99.90;;;;;;5112640;28;20216;-63
2021/06/22 08:47:04;;;;;;;8.50;7.73;;;16.20;99.90;;;;;;5112425;28;20408;-63
2021/06/22 08:49:32;;;;;;;8.17;7.30;;;15.80;99.90;;;;;;5112670;28;20416;-63
2021/06/22 08:52:00;;;;;;;11.83;9.80;;;15.80;99.90;;;;;;5112654;28;20410;-63
2021/06/22 08:54:26;;;;;;;9.77;7.20;;;15.40;99.90;;;;;;5112556;28;20416;-62
2021/06/22 08:56:53;;;;;;;8.90;8.20;;;15.40;99.90;;;;;;5112303;28;20418;-63
2021/06/22 08:59:19;;;;;;;8.13;7.43;;;15.20;99.90;;;;;;5112333;28;20235;-63
2021/06/22 09:01:44;;;;;;;15.37;9.70;;;15.30;99.90;;;;;;5112393;28;20857;-63
2021/06/22 09:04:10;;;;;;;8.50;7.73;;;15.50;99.90;;;;;;5112399;28;20165;-63
2021/06/22 09:06:43;;;;;;;8.97;8.27;;;15.50;99.90;;;;;;5112150;28;20173;-63
2021/06/22 09:09:09;;;;;;;10.07;9.27;;;15.40;99.90;;;;;;5112319;28;20200;-63
2021/06/22 09:11:36;;;;;;;12.93;9.40;;;15.60;99.90;;;;;;5112260;28;20422;-63
2021/06/22 09:14:05;;;;;;;10.10;8.90;;;15.70;99.90;;;;;;5112448;28;20426;-62
2021/06/22 09:16:31;;;;;;;11.90;10.70;;;16.00;99.90;;;;;;5112016;28;20411;-63
2021/06/22 09:19:15;;;;;;;10.37;9.37;;;16.00;99.90;;;;;;5112459;28;20963;-63
2021/06/22 09:21:45;;;;;;;9.07;7.47;;;16.00;99.90;;;;;;5112311;28;20906;-62
2021/06/22 09:24:22;;;;;;;11.00;9.90;;;16.00;99.90;;;;;;5112114;28;20887;-63
2021/06/22 09:26:51;;;;;;;10.60;9.50;;;15.80;99.90;;;;;;5111962;28;20395;-63
2021/06/22 09:29:20;;;;;;;12.13;9.00;;;15.60;99.90;;;;;;5112133;28;20476;-62
2021/06/22 09:32:00;;;;;;;9.07;8.23;;;15.90;99.90;;;;;;5112169;28;20820;-63
2021/06/22 09:34:28;;;;;;;11.50;9.23;;;15.80;99.90;;;;;;5112135;28;20815;-63
2021/06/22 09:36:59;;;;;;;12.03;10.93;;;15.80;99.90;;;;;;5111831;28;20408;-64
2021/06/22 09:39:27;;;;;;;13.77;11.80;;;15.60;99.90;;;;;;5112055;28;20974;-62
2021/06/22 09:41:55;;;;;;;10.10;9.03;;;15.60;99.90;;;;;;5112349;28;20491;-63
2021/06/22 09:44:25;;;;;;;9.67;8.87;;;15.80;99.90;;;;;;5115879;28;20400;-63
2021/06/22 09:46:56;;;;;;;11.80;10.70;;;15.70;99.90;;;;;;5115921;28;20903;-62
2021/06/22 09:49:24;;;;;;;10.93;10.03;;;15.70;99.90;;;;;;5116042;28;20431;-62
2021/06/22 09:54:32;;;;;;;8.63;7.80;;;15.70;99.90;;;;;;5116234;28;20918;-63
2021/06/22 09:57:01;;;;;;;12.97;11.77;;;15.60;99.90;;;;;;5115707;28;20398;-63
2021/06/22 09:59:30;;;;;;;12.30;11.10;;;15.50;99.90;;;;;;5115762;28;20443;-62
2021/06/22 10:02:09;;;;;;;11.00;9.87;;;15.40;99.90;;;;;;5115830;28;20438;-63
2021/06/22 10:04:36;;;;;;;11.33;10.33;;;15.60;99.90;;;;;;5115878;28;20406;-63
2021/06/22 10:07:02;;;;;;;9.00;8.10;;;15.50;99.90;;;;;;5115459;28;20403;-63
2021/06/22 10:09:32;;;;;;;9.30;8.50;;;15.50;99.90;;;;;;5115810;27;20399;-62
2021/06/22 10:12:12;;;;;;;11.53;9.77;;;15.70;99.90;;;;;;5115702;28;20399;-63
2021/06/22 10:14:48;;;;;;;13.50;11.13;;;15.90;99.90;;;;;;5115717;28;20407;-63
2021/06/22 10:17:17;;;;;;;9.30;8.50;;;16.00;99.90;;;;;;5115494;28;20495;-62
2021/06/22 10:19:45;;;;;;;10.33;9.43;;;16.00;99.90;;;;;;5115500;28;20447;-63
2021/06/22 10:22:11;;;;;;;10.83;9.80;;;15.90;99.90;;;;;;5115561;28;20403;-62
2021/06/22 10:24:43;;;;;;;9.23;8.30;;;15.90;99.90;;;;;;5115370;28;20391;-63
2021/06/22 10:27:10;;;;;;;12.30;10.27;;;15.80;99.90;;;;;;5115094;28;20914;-63
2021/06/22 10:29:35;;;;;;;11.83;10.77;;;15.70;99.90;;;;;;5115363;28;20399;-61
2021/06/22 10:32:03;;;;;;;10.50;9.50;;;15.60;99.90;;;;;;5115440;27;20475;-61
2021/06/22 10:34:30;;;;;;;13.13;11.83;;;15.50;99.90;;;;;;5115270;28;20706;-60
2021/06/22 10:37:12;;;;;;;7.93;7.23;;;15.30;99.90;;;;;;5114877;28;20410;-60
2021/06/22 10:39:56;;;;;;;9.03;8.33;;;15.40;99.90;;;;;;5115345;28;20473;-61
2021/06/22 10:42:22;;;;;;;10.43;8.87;;;15.60;99.90;;;;;;5115808;28;20395;-61
2021/06/22 10:44:52;;;;;;;10.87;9.73;;;15.40;99.90;;;;;;5115073;27;20396;-62
2021/06/22 10:47:17;;;;;;;9.03;8.27;;;15.30;99.90;;;;;;5114673;28;20299;-61
2021/06/22 10:50:16;;;;;;;11.20;10.10;;;15.80;99.90;;;;;;5114901;28;20498;-61
2021/06/22 10:52:42;;;;;;;10.23;9.30;;;15.50;99.90;;;;;;5114943;28;20197;-62
2021/06/22 10:55:28;;;;;;;7.20;6.50;;;15.50;99.90;;;;;;5113859;27;20431;-61
2021/06/22 10:57:57;;;;;;;11.77;9.60;;;15.90;99.90;;;;;;5106635;28;20574;-61
2021/06/22 11:00:24;;;;;;;8.90;8.10;;;16.10;99.90;;;;;;5114639;28;20419;-61
2021/06/22 11:02:58;;;;;;;14.80;10.60;;;16.20;99.90;;;;;;5114772;28;20392;-59
2021/06/22 11:05:24;;;;;;;8.17;7.27;;;16.10;99.90;;;;;;5114778;28;20408;-61
2021/06/22 11:08:11;;;;;;;7.47;6.77;;;16.20;99.90;;;;;;5114344;28;20445;-61
2021/06/22 11:10:42;;;;;;;10.53;9.53;;;16.20;99.90;;;;;;5114628;28;20427;-61
2021/06/22 11:13:28;;;;;;;8.13;7.10;;;16.20;99.90;;;;;;5114468;28;20415;-60
2021/06/22 11:15:55;;;;;;;10.57;9.63;;;16.30;99.90;;;;;;5114391;28;20839;-61
2021/06/22 11:18:21;;;;;;;10.23;9.00;;;16.30;99.90;;;;;;5114448;28;20451;-59
2021/06/22 11:20:58;;;;;;;9.13;8.43;;;16.40;99.90;;;;;;5114346;28;20403;-61
2021/06/22 11:23:23;;;;;;;8.27;6.87;;;16.50;99.90;;;;;;5114343;28;20482;-61
2021/06/22 11:25:58;;;;;;;13.50;10.70;;;16.50;99.90;;;;;;5114320;28;20499;-61
2021/06/22 11:28:25;;;;;;;9.03;8.10;;;16.50;99.90;;;;;;5113899;28;20226;-61
2021/06/22 11:31:00;;;;;;;8.53;7.83;;;16.40;99.90;;;;;;5114200;28;20481;-62
2021/06/22 11:33:28;;;;;;;11.10;10.10;;;16.50;99.90;;;;;;5113963;28;20395;-63
2021/06/22 11:36:20;;;;;;;12.57;9.53;;;16.30;99.90;;;;;;5114197;28;20436;-62
2021/06/22 11:39:09;;;;;;;8.13;7.37;;;16.10;99.90;;;;;;5108632;28;20456;-64
2021/06/22 11:41:35;;;;;;;9.80;7.70;;;16.40;99.90;;;;;;5107213;28;20919;-62
2021/06/22 11:44:06;;;;;;;10.57;7.97;;;16.40;99.90;;;;;;5113874;28;20404;-62
2021/06/22 11:46:34;;;;;;;10.33;9.43;;;16.30;99.90;;;;;;5113595;28;20483;-63
2021/06/22 11:49:01;;;;;;;10.30;9.37;;;16.40;99.90;;;;;;5113683;28;20438;-61
2021/06/22 11:51:51;;;;;;;9.47;8.47;;;16.30;99.90;;;;;;5113951;28;20411;-63
2021/06/22 11:54:20;;;;;;;8.70;7.37;;;16.20;99.90;;;;;;5113719;28;20431;-62
2021/06/22 11:56:47;;;;;;;10.23;8.47;;;16.40;99.90;;;;;;5113477;28;20388;-62
2021/06/22 11:59:13;;;;;;;9.30;8.30;;;16.60;99.90;;;;;;5113535;28;20490;-62
2021/06/22 12:01:45;;;;;;;8.90;8.10;;;16.40;99.90;;;;;;5113414;28;20419;-65
2021/06/22 12:04:11;;;;;;;10.73;9.63;;;16.20;99.90;;;;;;5112024;28;20460;-62
2021/06/22 12:06:37;;;;;;;9.57;8.50;;;16.10;99.90;;;;;;5112895;28;20403;-61
2021/06/22 12:09:19;;;;;;;10.70;9.70;;;15.90;99.90;;;;;;5112062;28;20254;-63
2021/06/22 12:11:47;;;;;;;10.60;9.37;;;15.90;99.90;;;;;;5113346;28;20190;-64
2021/06/22 12:14:13;;;;;;;9.70;8.23;;;16.00;99.90;;;;;;5113323;28;20407;-62
2021/06/22 12:16:40;;;;;;;8.63;7.93;;;16.10;99.90;;;;;;5113030;28;20468;-65
2021/06/22 12:19:06;;;;;;;9.27;8.47;;;16.30;99.90;;;;;;5112989;28;20452;-62
2021/06/22 12:21:34;;;;;;;11.00;9.37;;;16.50;99.90;;;;;;5113485;28;20403;-62
2021/06/22 12:24:07;;;;;;;10.67;8.97;;;16.30;99.90;;;;;;5113303;28;20773;-63
2021/06/22 12:26:36;;;;;;;9.87;7.87;;;16.20;99.90;;;;;;5112813;28;20407;-62
2021/06/22 12:29:02;;;;;;;14.50;11.10;;;16.20;99.90;;;;;;5112073;28;20434;-63
2021/06/22 12:31:27;;;;;;;11.10;10.10;;;16.00;99.90;;;;;;5112941;28;20416;-64
2021/06/22 12:33:58;;;;;;;8.10;7.27;;;16.20;99.90;;;;;;5112649;28;20549;-63
2021/06/22 12:36:24;;;;;;;8.90;7.70;;;16.20;99.90;;;;;;5113010;28;20170;-64
2021/06/22 12:38:56;;;;;;;8.83;7.93;;;16.40;99.90;;;;;;5112445;28;20451;-63
2021/06/22 12:41:29;;;;;;;9.57;8.70;;;16.40;99.90;;;;;;5112792;28;20193;-62
2021/06/22 12:43:55;;;;;;;9.83;8.07;;;16.60;99.90;;;;;;5112706;28;20400;-62